sensor_id;sensor_type;location;lat;lon;timestamp;P1;durP1;ratioP1;P2;durP2;ratioP2
70920;SDS011;58572;48.110;19.838;2023-03-23T00:01:03;9.00;;;4.10;;
70920;SDS011;58572;48.110;19.838;2023-03-23T00:03:31;10.32;;;4.05;;
70920;SDS011;58572;48.110;19.838;2023-03-23T00:05:59;8.25;;;4.15;;
70920;SDS011;58572;48.110;19.838;2023-03-23T00:08:31;9.25;;;4.80;;
70920;SDS011;58572;48.110;19.838;2023-03-23T00:10:58;8.55;;;4.47;;
70920;SDS011;58572;48.110;19.838;2023-03-23T00:13:27;10.02;;;4.32;;
70920;SDS011;58572;48.110;19.838;2023-03-23T00:15:55;7.45;;;4.15;;
70920;SDS011;58572;48.110;19.838;2023-03-23T00:18:25;7.47;;;4.28;;
70920;SDS011;58572;48.110;19.838;2023-03-23T00:20:53;9.57;;;4.72;;
70920;SDS011;58572;48.110;19.838;2023-03-23T00:23:22;10.15;;;4.18;;
70920;SDS011;58572;48.110;19.838;2023-03-23T00:25:53;8.82;;;4.57;;
70920;SDS011;58572;48.110;19.838;2023-03-23T00:28:22;11.15;;;4.15;;
70920;SDS011;58572;48.110;19.838;2023-03-23T00:30:55;9.07;;;4.72;;
70920;SDS011;58572;48.110;19.838;2023-03-23T00:33:23;7.35;;;4.50;;
70920;SDS011;58572;48.110;19.838;2023-03-23T00:35:51;8.20;;;4.60;;
70920;SDS011;58572;48.110;19.838;2023-03-23T00:38:19;8.23;;;4.85;;
70920;SDS011;58572;48.110;19.838;2023-03-23T00:43:15;6.43;;;4.00;;
70920;SDS011;58572;48.110;19.838;2023-03-23T00:45:43;7.60;;;4.22;;
70920;SDS011;58572;48.110;19.838;2023-03-23T00:48:14;9.73;;;4.38;;
70920;SDS011;58572;48.110;19.838;2023-03-23T00:53:08;11.23;;;4.53;;
70920;SDS011;58572;48.110;19.838;2023-03-23T00:55:36;9.02;;;4.80;;
70920;SDS011;58572;48.110;19.838;2023-03-23T00:58:03;9.20;;;4.90;;
70920;SDS011;58572;48.110;19.838;2023-03-23T01:00:31;8.63;;;4.25;;
70920;SDS011;58572;48.110;19.838;2023-03-23T01:02:58;9.35;;;4.78;;
70920;SDS011;58572;48.110;19.838;2023-03-23T01:05:25;8.63;;;4.38;;
70920;SDS011;58572;48.110;19.838;2023-03-23T01:07:57;7.80;;;4.60;;
70920;SDS011;58572;48.110;19.838;2023-03-23T01:10:25;8.20;;;4.60;;
70920;SDS011;58572;48.110;19.838;2023-03-23T01:15:20;7.43;;;4.75;;
70920;SDS011;58572;48.110;19.838;2023-03-23T01:17:49;12.20;;;4.80;;
70920;SDS011;58572;48.110;19.838;2023-03-23T01:20:16;9.88;;;4.63;;
70920;SDS011;58572;48.110;19.838;2023-03-23T01:22:43;9.32;;;5.03;;
70920;SDS011;58572;48.110;19.838;2023-03-23T01:25:10;8.43;;;4.38;;
70920;SDS011;58572;48.110;19.838;2023-03-23T01:27:39;9.77;;;5.03;;
70920;SDS011;58572;48.110;19.838;2023-03-23T01:30:07;8.77;;;4.78;;
70920;SDS011;58572;48.110;19.838;2023-03-23T01:32:37;7.95;;;3.85;;
70920;SDS011;58572;48.110;19.838;2023-03-23T01:35:06;9.43;;;4.75;;
70920;SDS011;58572;48.110;19.838;2023-03-23T01:37:34;8.45;;;4.78;;
70920;SDS011;58572;48.110;19.838;2023-03-23T01:40:01;10.75;;;4.97;;
70920;SDS011;58572;48.110;19.838;2023-03-23T01:42:30;7.68;;;4.82;;
70920;SDS011;58572;48.110;19.838;2023-03-23T01:48:03;9.52;;;4.75;;
70920;SDS011;58572;48.110;19.838;2023-03-23T01:50:38;7.68;;;4.75;;
70920;SDS011;58572;48.110;19.838;2023-03-23T01:53:11;10.00;;;4.60;;
70920;SDS011;58572;48.110;19.838;2023-03-23T01:55:39;9.43;;;5.07;;
70920;SDS011;58572;48.110;19.838;2023-03-23T01:58:07;8.90;;;4.93;;
70920;SDS011;58572;48.110;19.838;2023-03-23T02:00:37;9.48;;;5.13;;
70920;SDS011;58572;48.110;19.838;2023-03-23T02:03:07;9.32;;;4.57;;
70920;SDS011;58572;48.110;19.838;2023-03-23T02:05:40;8.73;;;4.70;;
70920;SDS011;58572;48.110;19.838;2023-03-23T02:08:08;8.57;;;4.45;;
70920;SDS011;58572;48.110;19.838;2023-03-23T02:10:38;9.40;;;4.72;;
70920;SDS011;58572;48.110;19.838;2023-03-23T02:13:06;8.25;;;4.70;;
70920;SDS011;58572;48.110;19.838;2023-03-23T02:15:40;9.55;;;4.25;;
70920;SDS011;58572;48.110;19.838;2023-03-23T02:18:26;7.72;;;4.82;;
70920;SDS011;58572;48.110;19.838;2023-03-23T02:21:08;11.02;;;4.82;;
70920;SDS011;58572;48.110;19.838;2023-03-23T02:27:13;7.28;;;4.32;;
70920;SDS011;58572;48.110;19.838;2023-03-23T02:29:55;6.72;;;4.22;;
70920;SDS011;58572;48.110;19.838;2023-03-23T02:32:51;7.82;;;4.30;;
70920;SDS011;58572;48.110;19.838;2023-03-23T02:35:48;11.75;;;4.93;;
70920;SDS011;58572;48.110;19.838;2023-03-23T02:38:20;8.32;;;4.68;;
70920;SDS011;58572;48.110;19.838;2023-03-23T02:40:53;8.40;;;4.95;;
70920;SDS011;58572;48.110;19.838;2023-03-23T02:43:23;9.73;;;4.43;;
70920;SDS011;58572;48.110;19.838;2023-03-23T02:45:54;8.90;;;4.22;;
70920;SDS011;58572;48.110;19.838;2023-03-23T02:48:24;9.32;;;4.45;;
70920;SDS011;58572;48.110;19.838;2023-03-23T02:50:56;8.32;;;4.40;;
70920;SDS011;58572;48.110;19.838;2023-03-23T02:53:26;12.30;;;4.32;;
70920;SDS011;58572;48.110;19.838;2023-03-23T02:55:55;10.63;;;4.28;;
70920;SDS011;58572;48.110;19.838;2023-03-23T02:58:27;6.93;;;3.67;;
70920;SDS011;58572;48.110;19.838;2023-03-23T03:00:54;7.80;;;4.32;;
70920;SDS011;58572;48.110;19.838;2023-03-23T03:03:22;9.93;;;4.50;;
70920;SDS011;58572;48.110;19.838;2023-03-23T03:05:54;10.13;;;5.10;;
70920;SDS011;58572;48.110;19.838;2023-03-23T03:08:33;7.97;;;4.35;;
70920;SDS011;58572;48.110;19.838;2023-03-23T03:11:06;10.25;;;4.63;;
70920;SDS011;58572;48.110;19.838;2023-03-23T03:13:38;9.27;;;4.18;;
70920;SDS011;58572;48.110;19.838;2023-03-23T03:16:16;7.93;;;4.30;;
70920;SDS011;58572;48.110;19.838;2023-03-23T03:18:52;9.65;;;4.43;;
70920;SDS011;58572;48.110;19.838;2023-03-23T03:21:25;9.48;;;4.72;;
70920;SDS011;58572;48.110;19.838;2023-03-23T03:23:55;8.80;;;4.50;;
70920;SDS011;58572;48.110;19.838;2023-03-23T03:26:26;10.55;;;4.13;;
70920;SDS011;58572;48.110;19.838;2023-03-23T03:28:54;8.32;;;3.72;;
70920;SDS011;58572;48.110;19.838;2023-03-23T03:31:22;8.18;;;4.07;;
70920;SDS011;58572;48.110;19.838;2023-03-23T03:33:54;9.38;;;4.75;;
70920;SDS011;58572;48.110;19.838;2023-03-23T03:36:21;8.80;;;5.43;;
70920;SDS011;58572;48.110;19.838;2023-03-23T03:38:54;8.57;;;5.20;;
70920;SDS011;58572;48.110;19.838;2023-03-23T03:41:22;8.98;;;4.70;;
70920;SDS011;58572;48.110;19.838;2023-03-23T03:43:49;7.55;;;4.30;;
70920;SDS011;58572;48.110;19.838;2023-03-23T03:46:16;9.15;;;4.45;;
70920;SDS011;58572;48.110;19.838;2023-03-23T03:48:43;10.98;;;4.55;;
70920;SDS011;58572;48.110;19.838;2023-03-23T03:51:10;8.88;;;4.97;;
70920;SDS011;58572;48.110;19.838;2023-03-23T03:53:37;9.45;;;4.82;;
70920;SDS011;58572;48.110;19.838;2023-03-23T03:56:06;9.32;;;4.78;;
70920;SDS011;58572;48.110;19.838;2023-03-23T03:58:33;9.55;;;4.60;;
70920;SDS011;58572;48.110;19.838;2023-03-23T04:01:01;9.40;;;4.95;;
70920;SDS011;58572;48.110;19.838;2023-03-23T04:03:29;10.20;;;4.88;;
70920;SDS011;58572;48.110;19.838;2023-03-23T04:05:56;8.68;;;5.00;;
70920;SDS011;58572;48.110;19.838;2023-03-23T04:08:24;7.40;;;4.40;;
70920;SDS011;58572;48.110;19.838;2023-03-23T04:10:52;8.55;;;4.82;;
70920;SDS011;58572;48.110;19.838;2023-03-23T04:13:20;8.90;;;4.35;;
70920;SDS011;58572;48.110;19.838;2023-03-23T04:15:47;7.60;;;4.20;;
70920;SDS011;58572;48.110;19.838;2023-03-23T04:18:15;9.32;;;4.10;;
70920;SDS011;58572;48.110;19.838;2023-03-23T04:20:45;8.15;;;3.63;;
70920;SDS011;58572;48.110;19.838;2023-03-23T04:23:13;10.65;;;4.03;;
70920;SDS011;58572;48.110;19.838;2023-03-23T04:25:45;7.32;;;4.55;;
70920;SDS011;58572;48.110;19.838;2023-03-23T04:28:12;8.35;;;4.38;;
70920;SDS011;58572;48.110;19.838;2023-03-23T04:30:43;7.20;;;4.40;;
70920;SDS011;58572;48.110;19.838;2023-03-23T04:33:10;6.63;;;3.22;;
70920;SDS011;58572;48.110;19.838;2023-03-23T04:35:39;7.68;;;3.97;;
70920;SDS011;58572;48.110;19.838;2023-03-23T04:38:06;7.70;;;4.13;;
70920;SDS011;58572;48.110;19.838;2023-03-23T04:40:35;7.13;;;3.88;;
70920;SDS011;58572;48.110;19.838;2023-03-23T04:43:02;9.18;;;3.60;;
70920;SDS011;58572;48.110;19.838;2023-03-23T04:45:31;7.13;;;3.95;;
70920;SDS011;58572;48.110;19.838;2023-03-23T04:48:00;8.25;;;3.92;;
70920;SDS011;58572;48.110;19.838;2023-03-23T04:50:31;5.03;;;3.35;;
70920;SDS011;58572;48.110;19.838;2023-03-23T04:52:59;9.65;;;3.83;;
70920;SDS011;58572;48.110;19.838;2023-03-23T04:55:29;7.30;;;3.20;;
70920;SDS011;58572;48.110;19.838;2023-03-23T04:57:57;7.63;;;3.50;;
70920;SDS011;58572;48.110;19.838;2023-03-23T05:00:26;6.28;;;3.63;;
70920;SDS011;58572;48.110;19.838;2023-03-23T05:02:53;7.03;;;3.65;;
70920;SDS011;58572;48.110;19.838;2023-03-23T05:05:22;6.85;;;3.92;;
70920;SDS011;58572;48.110;19.838;2023-03-23T05:07:50;7.38;;;3.72;;
70920;SDS011;58572;48.110;19.838;2023-03-23T05:10:17;6.30;;;3.90;;
70920;SDS011;58572;48.110;19.838;2023-03-23T05:12:44;6.28;;;3.55;;
70920;SDS011;58572;48.110;19.838;2023-03-23T05:15:12;6.38;;;3.50;;
70920;SDS011;58572;48.110;19.838;2023-03-23T05:17:41;7.00;;;4.63;;
70920;SDS011;58572;48.110;19.838;2023-03-23T05:20:10;6.47;;;2.80;;
70920;SDS011;58572;48.110;19.838;2023-03-23T05:22:39;7.40;;;4.25;;
70920;SDS011;58572;48.110;19.838;2023-03-23T05:25:07;6.50;;;3.72;;
70920;SDS011;58572;48.110;19.838;2023-03-23T05:27:35;6.55;;;3.58;;
70920;SDS011;58572;48.110;19.838;2023-03-23T05:30:03;7.60;;;3.92;;
70920;SDS011;58572;48.110;19.838;2023-03-23T05:32:31;5.70;;;3.55;;
70920;SDS011;58572;48.110;19.838;2023-03-23T05:34:59;7.43;;;3.95;;
70920;SDS011;58572;48.110;19.838;2023-03-23T05:37:28;6.93;;;4.05;;
70920;SDS011;58572;48.110;19.838;2023-03-23T05:39:58;6.43;;;3.85;;
70920;SDS011;58572;48.110;19.838;2023-03-23T05:42:30;7.90;;;4.13;;
70920;SDS011;58572;48.110;19.838;2023-03-23T05:44:57;8.15;;;4.38;;
70920;SDS011;58572;48.110;19.838;2023-03-23T05:49:52;7.50;;;3.05;;
70920;SDS011;58572;48.110;19.838;2023-03-23T05:52:19;9.23;;;4.72;;
70920;SDS011;58572;48.110;19.838;2023-03-23T05:54:49;9.90;;;3.70;;
70920;SDS011;58572;48.110;19.838;2023-03-23T05:57:17;7.57;;;4.18;;
70920;SDS011;58572;48.110;19.838;2023-03-23T05:59:46;7.70;;;4.07;;
70920;SDS011;58572;48.110;19.838;2023-03-23T06:02:13;7.55;;;3.72;;
70920;SDS011;58572;48.110;19.838;2023-03-23T06:04:41;9.25;;;3.58;;
70920;SDS011;58572;48.110;19.838;2023-03-23T06:07:08;6.55;;;3.97;;
70920;SDS011;58572;48.110;19.838;2023-03-23T06:09:38;6.15;;;3.38;;
70920;SDS011;58572;48.110;19.838;2023-03-23T06:12:05;6.50;;;3.53;;
70920;SDS011;58572;48.110;19.838;2023-03-23T06:14:35;6.63;;;4.28;;
70920;SDS011;58572;48.110;19.838;2023-03-23T06:17:02;6.80;;;3.90;;
70920;SDS011;58572;48.110;19.838;2023-03-23T06:19:29;5.55;;;3.22;;
70920;SDS011;58572;48.110;19.838;2023-03-23T06:21:59;8.10;;;4.15;;
70920;SDS011;58572;48.110;19.838;2023-03-23T06:24:26;7.55;;;3.88;;
70920;SDS011;58572;48.110;19.838;2023-03-23T06:26:53;7.43;;;3.47;;
70920;SDS011;58572;48.110;19.838;2023-03-23T06:29:20;8.02;;;4.25;;
70920;SDS011;58572;48.110;19.838;2023-03-23T06:31:51;7.85;;;3.92;;
70920;SDS011;58572;48.110;19.838;2023-03-23T06:34:21;7.50;;;3.40;;
70920;SDS011;58572;48.110;19.838;2023-03-23T06:36:48;6.43;;;3.38;;
70920;SDS011;58572;48.110;19.838;2023-03-23T06:39:15;6.60;;;3.65;;
70920;SDS011;58572;48.110;19.838;2023-03-23T06:41:42;6.80;;;3.67;;
70920;SDS011;58572;48.110;19.838;2023-03-23T06:44:09;6.07;;;3.60;;
70920;SDS011;58572;48.110;19.838;2023-03-23T06:46:38;8.00;;;3.75;;
70920;SDS011;58572;48.110;19.838;2023-03-23T06:49:08;8.00;;;3.75;;
70920;SDS011;58572;48.110;19.838;2023-03-23T06:51:35;5.93;;;3.35;;
70920;SDS011;58572;48.110;19.838;2023-03-23T06:54:02;5.93;;;3.00;;
70920;SDS011;58572;48.110;19.838;2023-03-23T06:58:57;7.65;;;4.22;;
70920;SDS011;58572;48.110;19.838;2023-03-23T07:01:24;8.45;;;4.88;;
70920;SDS011;58572;48.110;19.838;2023-03-23T07:03:53;7.57;;;4.65;;
70920;SDS011;58572;48.110;19.838;2023-03-23T07:06:23;7.20;;;4.78;;
70920;SDS011;58572;48.110;19.838;2023-03-23T07:08:51;7.70;;;5.20;;
70920;SDS011;58572;48.110;19.838;2023-03-23T07:11:18;7.38;;;4.28;;
70920;SDS011;58572;48.110;19.838;2023-03-23T07:13:45;7.47;;;4.47;;
70920;SDS011;58572;48.110;19.838;2023-03-23T07:16:12;7.90;;;4.53;;
70920;SDS011;58572;48.110;19.838;2023-03-23T07:18:39;8.85;;;4.60;;
70920;SDS011;58572;48.110;19.838;2023-03-23T07:21:06;7.38;;;4.63;;
70920;SDS011;58572;48.110;19.838;2023-03-23T07:23:35;6.63;;;4.45;;
70920;SDS011;58572;48.110;19.838;2023-03-23T07:26:02;8.65;;;4.45;;
70920;SDS011;58572;48.110;19.838;2023-03-23T07:28:29;7.90;;;4.60;;
70920;SDS011;58572;48.110;19.838;2023-03-23T07:30:57;9.30;;;5.55;;
70920;SDS011;58572;48.110;19.838;2023-03-23T07:33:24;10.07;;;4.90;;
70920;SDS011;58572;48.110;19.838;2023-03-23T07:35:52;7.85;;;4.97;;
70920;SDS011;58572;48.110;19.838;2023-03-23T07:38:19;7.10;;;4.47;;
70920;SDS011;58572;48.110;19.838;2023-03-23T07:40:47;8.45;;;4.35;;
70920;SDS011;58572;48.110;19.838;2023-03-23T07:43:14;8.25;;;5.05;;
70920;SDS011;58572;48.110;19.838;2023-03-23T07:45:41;9.05;;;5.35;;
70920;SDS011;58572;48.110;19.838;2023-03-23T07:48:08;8.63;;;5.45;;
70920;SDS011;58572;48.110;19.838;2023-03-23T07:50:35;8.57;;;4.85;;
70920;SDS011;58572;48.110;19.838;2023-03-23T07:53:02;8.27;;;5.10;;
70920;SDS011;58572;48.110;19.838;2023-03-23T07:55:30;8.50;;;5.65;;
70920;SDS011;58572;48.110;19.838;2023-03-23T07:57:58;9.02;;;5.18;;
70920;SDS011;58572;48.110;19.838;2023-03-23T08:00:26;7.03;;;4.75;;
70920;SDS011;58572;48.110;19.838;2023-03-23T08:02:54;6.60;;;5.15;;
70920;SDS011;58572;48.110;19.838;2023-03-23T08:05:24;8.85;;;5.68;;
70920;SDS011;58572;48.110;19.838;2023-03-23T08:07:53;8.52;;;6.10;;
70920;SDS011;58572;48.110;19.838;2023-03-23T08:10:21;8.70;;;5.03;;
70920;SDS011;58572;48.110;19.838;2023-03-23T08:12:50;8.52;;;4.70;;
70920;SDS011;58572;48.110;19.838;2023-03-23T08:15:21;7.57;;;4.32;;
70920;SDS011;58572;48.110;19.838;2023-03-23T08:17:49;8.73;;;5.82;;
70920;SDS011;58572;48.110;19.838;2023-03-23T08:20:16;7.57;;;5.68;;
70920;SDS011;58572;48.110;19.838;2023-03-23T08:22:44;7.15;;;4.65;;
70920;SDS011;58572;48.110;19.838;2023-03-23T08:25:13;8.82;;;4.88;;
70920;SDS011;58572;48.110;19.838;2023-03-23T08:27:42;8.50;;;5.43;;
70920;SDS011;58572;48.110;19.838;2023-03-23T08:30:10;7.90;;;4.50;;
70920;SDS011;58572;48.110;19.838;2023-03-23T08:32:40;7.75;;;4.65;;
70920;SDS011;58572;48.110;19.838;2023-03-23T08:35:08;7.70;;;4.43;;
70920;SDS011;58572;48.110;19.838;2023-03-23T08:37:36;7.45;;;3.92;;
70920;SDS011;58572;48.110;19.838;2023-03-23T08:40:04;6.28;;;3.88;;
70920;SDS011;58572;48.110;19.838;2023-03-23T08:42:34;7.15;;;5.32;;
70920;SDS011;58572;48.110;19.838;2023-03-23T08:45:02;9.25;;;4.38;;
70920;SDS011;58572;48.110;19.838;2023-03-23T08:47:30;7.13;;;4.10;;
70920;SDS011;58572;48.110;19.838;2023-03-23T08:49:59;6.85;;;4.40;;
70920;SDS011;58572;48.110;19.838;2023-03-23T08:52:27;7.20;;;3.90;;
70920;SDS011;58572;48.110;19.838;2023-03-23T08:54:55;10.90;;;4.30;;
70920;SDS011;58572;48.110;19.838;2023-03-23T08:57:22;8.23;;;3.83;;
70920;SDS011;58572;48.110;19.838;2023-03-23T08:59:49;5.97;;;3.78;;
70920;SDS011;58572;48.110;19.838;2023-03-23T09:02:16;9.68;;;3.70;;
70920;SDS011;58572;48.110;19.838;2023-03-23T09:04:44;6.72;;;4.38;;
70920;SDS011;58572;48.110;19.838;2023-03-23T09:07:13;7.35;;;3.90;;
70920;SDS011;58572;48.110;19.838;2023-03-23T09:09:41;6.45;;;4.03;;
70920;SDS011;58572;48.110;19.838;2023-03-23T09:12:09;9.20;;;4.13;;
70920;SDS011;58572;48.110;19.838;2023-03-23T09:14:36;5.68;;;3.05;;
70920;SDS011;58572;48.110;19.838;2023-03-23T09:17:04;7.57;;;3.35;;
70920;SDS011;58572;48.110;19.838;2023-03-23T09:19:32;5.15;;;3.30;;
70920;SDS011;58572;48.110;19.838;2023-03-23T09:22:01;4.68;;;2.78;;
70920;SDS011;58572;48.110;19.838;2023-03-23T09:24:30;5.72;;;3.65;;
70920;SDS011;58572;48.110;19.838;2023-03-23T09:26:58;5.47;;;2.75;;
70920;SDS011;58572;48.110;19.838;2023-03-23T09:29:25;4.97;;;3.65;;
70920;SDS011;58572;48.110;19.838;2023-03-23T09:31:53;5.65;;;2.80;;
70920;SDS011;58572;48.110;19.838;2023-03-23T09:34:21;5.95;;;3.17;;
70920;SDS011;58572;48.110;19.838;2023-03-23T09:36:49;4.55;;;2.95;;
70920;SDS011;58572;48.110;19.838;2023-03-23T09:39:17;6.65;;;2.80;;
70920;SDS011;58572;48.110;19.838;2023-03-23T09:41:50;6.30;;;2.88;;
70920;SDS011;58572;48.110;19.838;2023-03-23T09:44:35;5.68;;;2.92;;
70920;SDS011;58572;48.110;19.838;2023-03-23T09:47:13;3.90;;;2.60;;
70920;SDS011;58572;48.110;19.838;2023-03-23T09:49:53;5.50;;;2.60;;
70920;SDS011;58572;48.110;19.838;2023-03-23T09:52:26;4.53;;;2.42;;
70920;SDS011;58572;48.110;19.838;2023-03-23T09:57:34;4.13;;;2.10;;
70920;SDS011;58572;48.110;19.838;2023-03-23T10:00:09;5.13;;;2.65;;
70920;SDS011;58572;48.110;19.838;2023-03-23T10:02:43;4.30;;;2.88;;
70920;SDS011;58572;48.110;19.838;2023-03-23T10:08:02;4.25;;;2.55;;
70920;SDS011;58572;48.110;19.838;2023-03-23T10:10:49;6.38;;;2.50;;
70920;SDS011;58572;48.110;19.838;2023-03-23T10:13:28;4.68;;;2.72;;
70920;SDS011;58572;48.110;19.838;2023-03-23T10:16:08;4.60;;;2.47;;
70920;SDS011;58572;48.110;19.838;2023-03-23T10:18:39;4.47;;;2.88;;
70920;SDS011;58572;48.110;19.838;2023-03-23T10:21:11;5.55;;;3.10;;
70920;SDS011;58572;48.110;19.838;2023-03-23T10:23:45;6.80;;;2.88;;
70920;SDS011;58572;48.110;19.838;2023-03-23T10:26:29;4.00;;;2.40;;
70920;SDS011;58572;48.110;19.838;2023-03-23T10:29:12;3.78;;;2.53;;
70920;SDS011;58572;48.110;19.838;2023-03-23T10:31:45;4.80;;;3.20;;
70920;SDS011;58572;48.110;19.838;2023-03-23T10:34:17;4.95;;;2.22;;
70920;SDS011;58572;48.110;19.838;2023-03-23T10:36:51;5.35;;;2.97;;
70920;SDS011;58572;48.110;19.838;2023-03-23T10:39:23;4.32;;;2.78;;
70920;SDS011;58572;48.110;19.838;2023-03-23T10:41:55;3.28;;;2.10;;
70920;SDS011;58572;48.110;19.838;2023-03-23T10:44:29;5.80;;;2.58;;
70920;SDS011;58572;48.110;19.838;2023-03-23T10:47:00;4.78;;;2.83;;
70920;SDS011;58572;48.110;19.838;2023-03-23T10:49:32;4.50;;;2.60;;
70920;SDS011;58572;48.110;19.838;2023-03-23T10:52:04;5.28;;;2.97;;
70920;SDS011;58572;48.110;19.838;2023-03-23T10:54:46;7.88;;;3.35;;
70920;SDS011;58572;48.110;19.838;2023-03-23T10:57:21;4.82;;;2.60;;
70920;SDS011;58572;48.110;19.838;2023-03-23T10:59:57;4.68;;;2.75;;
70920;SDS011;58572;48.110;19.838;2023-03-23T11:02:26;5.05;;;3.15;;
70920;SDS011;58572;48.110;19.838;2023-03-23T11:04:56;6.68;;;3.20;;
70920;SDS011;58572;48.110;19.838;2023-03-23T11:07:28;5.55;;;3.40;;
70920;SDS011;58572;48.110;19.838;2023-03-23T11:09:56;5.85;;;3.30;;
70920;SDS011;58572;48.110;19.838;2023-03-23T11:12:34;4.30;;;2.97;;
70920;SDS011;58572;48.110;19.838;2023-03-23T11:15:15;4.95;;;2.22;;
70920;SDS011;58572;48.110;19.838;2023-03-23T11:18:02;4.88;;;2.15;;
70920;SDS011;58572;48.110;19.838;2023-03-23T11:20:33;7.10;;;2.92;;
70920;SDS011;58572;48.110;19.838;2023-03-23T11:23:08;4.63;;;2.70;;
70920;SDS011;58572;48.110;19.838;2023-03-23T11:25:50;4.57;;;2.63;;
70920;SDS011;58572;48.110;19.838;2023-03-23T11:28:20;4.60;;;3.05;;
70920;SDS011;58572;48.110;19.838;2023-03-23T11:30:49;5.50;;;2.88;;
70920;SDS011;58572;48.110;19.838;2023-03-23T11:33:20;5.43;;;3.47;;
70920;SDS011;58572;48.110;19.838;2023-03-23T11:35:50;5.72;;;3.65;;
70920;SDS011;58572;48.110;19.838;2023-03-23T11:38:20;6.22;;;3.25;;
70920;SDS011;58572;48.110;19.838;2023-03-23T11:40:53;6.85;;;3.45;;
70920;SDS011;58572;48.110;19.838;2023-03-23T11:43:21;5.43;;;2.97;;
70920;SDS011;58572;48.110;19.838;2023-03-23T11:45:56;4.65;;;2.88;;
70920;SDS011;58572;48.110;19.838;2023-03-23T11:48:32;7.65;;;4.72;;
70920;SDS011;58572;48.110;19.838;2023-03-23T11:51:17;5.93;;;3.58;;
70920;SDS011;58572;48.110;19.838;2023-03-23T11:53:48;6.53;;;4.40;;
70920;SDS011;58572;48.110;19.838;2023-03-23T11:56:23;6.55;;;3.95;;
70920;SDS011;58572;48.110;19.838;2023-03-23T11:58:52;7.80;;;4.07;;
70920;SDS011;58572;48.110;19.838;2023-03-23T12:01:40;7.90;;;4.30;;
70920;SDS011;58572;48.110;19.838;2023-03-23T12:04:25;8.82;;;5.53;;
70920;SDS011;58572;48.110;19.838;2023-03-23T12:09:57;11.48;;;4.95;;
70920;SDS011;58572;48.110;19.838;2023-03-23T12:12:32;6.93;;;4.13;;
70920;SDS011;58572;48.110;19.838;2023-03-23T12:15:12;7.47;;;4.10;;
70920;SDS011;58572;48.110;19.838;2023-03-23T12:17:51;6.75;;;4.25;;
70920;SDS011;58572;48.110;19.838;2023-03-23T12:20:27;6.53;;;4.38;;
70920;SDS011;58572;48.110;19.838;2023-03-23T12:23:04;6.18;;;4.20;;
70920;SDS011;58572;48.110;19.838;2023-03-23T12:25:45;7.50;;;3.75;;
70920;SDS011;58572;48.110;19.838;2023-03-23T12:28:32;6.97;;;4.72;;
70920;SDS011;58572;48.110;19.838;2023-03-23T12:31:11;10.50;;;4.70;;
70920;SDS011;58572;48.110;19.838;2023-03-23T12:33:48;5.63;;;3.65;;
70920;SDS011;58572;48.110;19.838;2023-03-23T12:36:26;8.18;;;4.82;;
70920;SDS011;58572;48.110;19.838;2023-03-23T12:42:15;7.53;;;3.70;;
70920;SDS011;58572;48.110;19.838;2023-03-23T12:44:49;6.47;;;3.72;;
70920;SDS011;58572;48.110;19.838;2023-03-23T12:47:29;5.95;;;3.35;;
70920;SDS011;58572;48.110;19.838;2023-03-23T12:50:05;5.60;;;3.45;;
70920;SDS011;58572;48.110;19.838;2023-03-23T12:52:37;4.90;;;3.00;;
70920;SDS011;58572;48.110;19.838;2023-03-23T12:55:14;6.68;;;3.80;;
70920;SDS011;58572;48.110;19.838;2023-03-23T13:02:48;6.28;;;2.95;;
70920;SDS011;58572;48.110;19.838;2023-03-23T13:05:28;5.57;;;2.92;;
70920;SDS011;58572;48.110;19.838;2023-03-23T13:08:05;5.38;;;2.88;;
70920;SDS011;58572;48.110;19.838;2023-03-23T13:10:44;6.28;;;3.22;;
70920;SDS011;58572;48.110;19.838;2023-03-23T13:13:13;6.82;;;4.03;;
70920;SDS011;58572;48.110;19.838;2023-03-23T13:15:46;6.30;;;3.92;;
70920;SDS011;58572;48.110;19.838;2023-03-23T13:18:30;5.10;;;3.42;;
70920;SDS011;58572;48.110;19.838;2023-03-23T13:21:08;5.55;;;3.10;;
70920;SDS011;58572;48.110;19.838;2023-03-23T13:23:44;6.22;;;3.85;;
70920;SDS011;58572;48.110;19.838;2023-03-23T13:26:17;5.35;;;2.95;;
70920;SDS011;58572;48.110;19.838;2023-03-23T13:28:57;4.70;;;3.03;;
70920;SDS011;58572;48.110;19.838;2023-03-23T13:31:27;5.88;;;3.05;;
70920;SDS011;58572;48.110;19.838;2023-03-23T13:33:59;6.03;;;3.05;;
70920;SDS011;58572;48.110;19.838;2023-03-23T13:36:31;6.75;;;2.63;;
70920;SDS011;58572;48.110;19.838;2023-03-23T13:39:03;4.30;;;3.03;;
70920;SDS011;58572;48.110;19.838;2023-03-23T13:41:34;5.47;;;2.80;;
70920;SDS011;58572;48.110;19.838;2023-03-23T13:44:15;5.68;;;2.33;;
70920;SDS011;58572;48.110;19.838;2023-03-23T13:46:53;6.55;;;2.33;;
70920;SDS011;58572;48.110;19.838;2023-03-23T13:49:26;5.93;;;2.58;;
70920;SDS011;58572;48.110;19.838;2023-03-23T13:52:00;4.28;;;2.80;;
70920;SDS011;58572;48.110;19.838;2023-03-23T13:54:41;5.28;;;2.20;;
70920;SDS011;58572;48.110;19.838;2023-03-23T14:00:12;4.05;;;2.20;;
70920;SDS011;58572;48.110;19.838;2023-03-23T14:03:00;4.57;;;2.10;;
70920;SDS011;58572;48.110;19.838;2023-03-23T14:05:33;5.38;;;2.25;;
70920;SDS011;58572;48.110;19.838;2023-03-23T14:08:10;3.90;;;1.98;;
70920;SDS011;58572;48.110;19.838;2023-03-23T14:10:41;4.10;;;2.25;;
70920;SDS011;58572;48.110;19.838;2023-03-23T14:13:13;4.43;;;2.47;;
70920;SDS011;58572;48.110;19.838;2023-03-23T14:15:45;3.60;;;1.70;;
70920;SDS011;58572;48.110;19.838;2023-03-23T14:18:23;3.88;;;2.10;;
70920;SDS011;58572;48.110;19.838;2023-03-23T14:20:53;4.93;;;2.38;;
70920;SDS011;58572;48.110;19.838;2023-03-23T14:23:23;4.93;;;2.75;;
70920;SDS011;58572;48.110;19.838;2023-03-23T14:25:58;5.05;;;1.80;;
70920;SDS011;58572;48.110;19.838;2023-03-23T14:28:35;4.90;;;2.25;;
70920;SDS011;58572;48.110;19.838;2023-03-23T14:31:04;5.53;;;1.90;;
70920;SDS011;58572;48.110;19.838;2023-03-23T14:33:38;5.90;;;2.03;;
70920;SDS011;58572;48.110;19.838;2023-03-23T14:36:07;3.78;;;2.03;;
70920;SDS011;58572;48.110;19.838;2023-03-23T14:38:36;3.50;;;2.10;;
70920;SDS011;58572;48.110;19.838;2023-03-23T14:41:04;3.95;;;2.10;;
70920;SDS011;58572;48.110;19.838;2023-03-23T14:43:33;3.20;;;1.98;;
70920;SDS011;58572;48.110;19.838;2023-03-23T14:46:03;3.05;;;2.05;;
70920;SDS011;58572;48.110;19.838;2023-03-23T14:48:34;3.63;;;2.05;;
70920;SDS011;58572;48.110;19.838;2023-03-23T14:51:03;3.58;;;2.08;;
70920;SDS011;58572;48.110;19.838;2023-03-23T14:53:33;4.15;;;1.95;;
70920;SDS011;58572;48.110;19.838;2023-03-23T14:56:06;9.63;;;1.95;;
70920;SDS011;58572;48.110;19.838;2023-03-23T14:58:38;3.53;;;1.90;;
70920;SDS011;58572;48.110;19.838;2023-03-23T15:01:09;3.20;;;1.95;;
70920;SDS011;58572;48.110;19.838;2023-03-23T15:03:41;5.22;;;1.65;;
70920;SDS011;58572;48.110;19.838;2023-03-23T15:06:12;3.60;;;1.75;;
70920;SDS011;58572;48.110;19.838;2023-03-23T15:08:42;3.00;;;1.60;;
70920;SDS011;58572;48.110;19.838;2023-03-23T15:11:13;3.60;;;1.70;;
70920;SDS011;58572;48.110;19.838;2023-03-23T15:13:50;4.07;;;1.73;;
70920;SDS011;58572;48.110;19.838;2023-03-23T15:16:20;4.20;;;1.92;;
70920;SDS011;58572;48.110;19.838;2023-03-23T15:18:49;4.57;;;2.00;;
70920;SDS011;58572;48.110;19.838;2023-03-23T15:21:22;5.22;;;1.65;;
70920;SDS011;58572;48.110;19.838;2023-03-23T15:23:51;5.25;;;2.10;;
70920;SDS011;58572;48.110;19.838;2023-03-23T15:26:24;6.95;;;2.45;;
70920;SDS011;58572;48.110;19.838;2023-03-23T15:31:44;4.05;;;2.17;;
70920;SDS011;58572;48.110;19.838;2023-03-23T15:34:18;8.00;;;3.35;;
70920;SDS011;58572;48.110;19.838;2023-03-23T15:36:51;7.13;;;2.90;;